Aireys Inlet, Victoria

12:39 AM EST on July 29, 2014 (GMT +1000)
Aireys Inlet Victoria Australia (IVICTORI430) Elev 121 ft | 38.46 °S, 144.11 °E | Change Station

Current weather conditions updated 12 seconds ago

Clear
Clear
57.2 °F
Feels Like 57.2 °F
N
7.2
Wind Variable Wind from ENE
Gusts 7.4 mph

Today is forecast to be Much Cooler than yesterday.

Today
High -- | Low -- °F
--% Chance of Precip.
Yesterday
High -- | Low -- °F
Precip. -- in
7:28 AM 5:32 PM
New Moon, 2% visible
Pressure 29.83 in
Visibility 6.2 miles
Clouds
Dew Point 47 °F
Humidity 68%
Rainfall 0.00 in
Snow Depth Not available.
UV 0.0 out of 12
Pollen Not available.
Air Quality Not available.
Flu Activity Not available.
METAR YMAV 281400Z AUTO 35013KT 9999 // NCD 13/07 Q1010

More Conditions Fewer Conditions

Pressure 29.83 in
Visibility 6.2 miles
Clouds
Dew Point 47 °F
Humidity 68%
Rainfall 0.00 in
Snow Depth Not available.
UV 0.0 out of 12
Pollen Not available.
Air Quality Not available.
Flu Activity Not available.
METAR YMAV 281400Z AUTO 35013KT 9999 // NCD 13/07 Q1010

More Conditions Fewer Conditions

10-Day Weather Forecast

Almanac

Astronomy

Jul. 29, 2014 Rise Set
Actual Time 7:28 AM EST 5:32 PM EST
Civil Twilight 6:59 AM EST 6:00 PM EST
Nautical Twilight 6:27 AM EST 6:32 PM EST
Astronomical Twilight 5:56 AM EST 7:04 PM EST
Moon 8:17 AM EST (7/29) 7:47 PM EST (7/29)
Length of Visible Light 11h 00m
Length of Day
10h 03m
Tomorrow will be 1m 44s longer.
New Moon, 2% of the Moon is Illuminated
Jul 28
New Moon
Aug 3
First Quarter
Aug 10
Full
Aug 17
Last Quarter
Aug 25
New

Yesterday's Extremes

Country Highs Country Lows

Community

WunderPhotos

Upload Photos

1,738,343 photos uploaded!

Nearby

Snow Depth

Not available.

Earthquake Activity

City Distance Mag. Time & Date
No recent earthquake activity has been reported nearby.
Minimum magnitude displayed is 2.5.

Coastal Water Temperatures

Place Temperature
No Stations Reporting

Nearby Weather Stations

Station Location Temp. Dew Point Humidity Wind Precip. Elev Updated Type
Aireys Inlet Victoria Australia, Aireys Inlet 57.2 °F 47 °F 68% ENE  at  7.2 mph 0.00 in / hr 121 ft 12:39 AM EST Rapid Fire
Lorne 55.9 °F 47 °F 72% NNE  at  11.0 mph 0.00 in / hr 36 ft 12:38 AM EST Normal
Lorne 53.8 °F 44 °F 70% West  at  2.0 mph 0.00 in / hr 295 ft 12:35 AM EST Normal
Moriac 50.8 °F 46 °F 82% NW  at  22.0 mph 0.00 in / hr 338 ft 12:39 AM EST Rapid Fire
Thomson, Geelong, Thomson 52.9 °F 44 °F 73% NNE  at  2.2 mph 0.00 in / hr 66 ft 12:39 AM EST Rapid Fire
Geelong, Herne Hill 53.2 °F 44 °F 71% SW  at  6.9 mph 0.00 in / hr 190 ft 12:39 AM EST Rapid Fire

Show More Stations Show Fewer Stations